createdAt,value
2019-04-27T00:01:48.576Z,10.30
2019-04-27T00:04:33.975Z,7.67
2019-04-27T00:07:06.043Z,7.57
2019-04-27T00:09:37.160Z,6.63
2019-04-27T00:12:05.819Z,7.13
2019-04-27T00:14:33.149Z,7.17
2019-04-27T00:17:20.978Z,7.07
2019-04-27T00:20:04.379Z,8.47
2019-04-27T00:22:33.536Z,8.23
2019-04-27T00:25:00.838Z,8.33
2019-04-27T00:27:27.580Z,8.20
2019-04-27T00:29:53.919Z,7.70
2019-04-27T00:32:20.345Z,7.90
2019-04-27T00:34:47.995Z,8.50
2019-04-27T00:37:33.879Z,10.40
2019-04-27T00:40:08.622Z,7.80
2019-04-27T00:42:35.695Z,7.53
2019-04-27T00:45:05.410Z,10.47
2019-04-27T00:47:32.717Z,9.77
2019-04-27T00:50:00.271Z,10.00
2019-04-27T00:52:26.569Z,8.13
2019-04-27T00:54:53.912Z,9.43
2019-04-27T00:57:20.335Z,8.23
2019-04-27T01:00:05.518Z,8.60
2019-04-27T01:02:36.976Z,9.13
2019-04-27T01:05:06.673Z,8.90
2019-04-27T01:07:33.441Z,7.83
2019-04-27T01:10:00.258Z,9.33
2019-04-27T01:12:26.603Z,9.47
2019-04-27T01:14:54.325Z,9.70
2019-04-27T01:17:20.932Z,8.23
2019-04-27T01:19:47.250Z,11.47
2019-04-27T01:22:13.582Z,10.93
2019-04-27T01:24:40.278Z,10.47
2019-04-27T01:27:08.825Z,10.63
2019-04-27T01:29:37.072Z,11.60
2019-04-27T01:32:06.370Z,10.10
2019-04-27T01:34:33.081Z,11.30
2019-04-27T01:36:59.709Z,10.77
2019-04-27T01:39:26.050Z,11.80
2019-04-27T01:41:52.367Z,13.40
2019-04-27T01:44:19.372Z,12.90
2019-04-27T01:46:46.266Z,11.37
2019-04-27T01:49:13.014Z,10.30
2019-04-27T01:51:39.405Z,10.60
2019-04-27T01:54:07.602Z,11.83
2019-04-27T01:56:34.142Z,10.43
2019-04-27T01:59:00.540Z,12.43
2019-04-27T02:01:28.916Z,15.00
2019-04-27T02:03:59.275Z,11.53
2019-04-27T02:06:26.942Z,9.77
2019-04-27T02:08:53.282Z,9.40
2019-04-27T02:11:19.917Z,10.60
2019-04-27T02:13:46.563Z,10.43
2019-04-27T02:16:13.186Z,14.60
2019-04-27T02:18:40.027Z,10.10
2019-04-27T02:21:06.634Z,11.10
2019-04-27T02:23:32.963Z,9.90
2019-04-27T02:26:01.346Z,9.87
2019-04-27T02:28:30.715Z,11.87
2019-04-27T02:31:19.336Z,9.37
2019-04-27T02:33:49.850Z,11.47
2019-04-27T02:36:15.949Z,11.73
2019-04-27T02:38:42.279Z,8.57
2019-04-27T02:41:10.021Z,10.17
2019-04-27T02:43:50.973Z,10.97
2019-04-27T02:46:19.787Z,12.10
2019-04-27T02:48:58.596Z,10.43
2019-04-27T02:51:20.332Z,9.60
2019-04-27T02:54:00.459Z,14.03
2019-04-27T02:56:27.407Z,9.30
2019-04-27T02:58:53.862Z,11.10
2019-04-27T03:01:22.456Z,8.30
2019-04-27T03:03:50.168Z,9.40
2019-04-27T03:06:16.926Z,10.33
2019-04-27T03:08:43.278Z,13.83
2019-04-27T03:11:09.995Z,14.30
2019-04-27T03:13:44.584Z,10.20
2019-04-27T03:16:13.406Z,11.37
2019-04-27T03:18:50.860Z,12.27
2019-04-27T03:21:20.140Z,12.03
2019-04-27T03:23:46.619Z,13.20
2019-04-27T03:26:21.701Z,10.00
2019-04-27T03:28:50.321Z,10.37
2019-04-27T03:31:16.546Z,10.93
2019-04-27T03:33:44.263Z,12.40
2019-04-27T03:36:12.761Z,9.67
2019-04-27T03:38:39.791Z,13.07
2019-04-27T03:41:06.320Z,13.10
2019-04-27T03:43:32.914Z,12.27
2019-04-27T03:46:00.457Z,14.93
2019-04-27T03:48:29.067Z,13.10
2019-04-27T03:50:55.637Z,12.73
2019-04-27T03:53:29.268Z,11.33
2019-04-27T03:55:59.989Z,14.47
2019-04-27T03:58:32.893Z,12.40
2019-04-27T04:01:00.538Z,14.83
2019-04-27T04:03:29.576Z,18.33
2019-04-27T04:05:55.250Z,14.30
2019-04-27T04:08:21.784Z,15.83
2019-04-27T04:10:59.621Z,12.43
2019-04-27T04:13:31.838Z,12.00
2019-04-27T04:16:03.040Z,15.80
2019-04-27T04:18:31.841Z,14.37
2019-04-27T04:21:00.431Z,16.70
2019-04-27T04:23:26.665Z,15.50
2019-04-27T04:25:52.970Z,12.70
2019-04-27T04:28:20.127Z,14.80
2019-04-27T04:30:46.919Z,20.87
2019-04-27T04:33:13.260Z,16.53
2019-04-27T04:35:40.015Z,16.73
2019-04-27T04:38:10.419Z,14.73
2019-04-27T04:40:40.069Z,15.47
2019-04-27T04:43:10.839Z,15.10
2019-04-27T04:45:50.823Z,18.00
2019-04-27T04:48:20.003Z,25.13
2019-04-27T04:50:46.561Z,17.70
2019-04-27T04:53:13.202Z,18.50
2019-04-27T04:55:39.519Z,22.43
2019-04-27T04:58:06.161Z,18.33
2019-04-27T05:00:32.519Z,17.77
2019-04-27T05:02:59.549Z,19.60
2019-04-27T05:05:26.296Z,16.77
2019-04-27T05:07:52.577Z,18.17
2019-04-27T05:10:19.012Z,18.97
2019-04-27T05:12:45.374Z,14.53
2019-04-27T05:15:12.335Z,15.37
2019-04-27T05:17:39.864Z,13.20
2019-04-27T05:20:26.280Z,14.07
2019-04-27T05:22:51.860Z,12.70
2019-04-27T05:25:18.679Z,16.47
2019-04-27T05:27:45.499Z,15.50
2019-04-27T05:30:11.856Z,12.27
2019-04-27T05:32:39.354Z,15.43
2019-04-27T05:35:06.229Z,14.30
2019-04-27T05:37:32.573Z,14.97
2019-04-27T05:39:58.966Z,15.33
2019-04-27T05:42:26.316Z,13.73
2019-04-27T05:45:15.333Z,11.30
2019-04-27T05:47:50.219Z,13.47
2019-04-27T05:50:18.394Z,11.80
2019-04-27T05:52:44.372Z,14.23
2019-04-27T05:55:10.729Z,13.37
2019-04-27T05:57:39.022Z,12.20
2019-04-27T06:00:09.175Z,12.40
2019-04-27T06:02:35.844Z,15.20
2019-04-27T06:05:05.245Z,13.83
2019-04-27T06:07:31.615Z,14.43
2019-04-27T06:09:59.751Z,15.20
2019-04-27T06:12:26.550Z,12.60
2019-04-27T06:14:53.175Z,13.07
2019-04-27T06:17:19.605Z,11.20
2019-04-27T06:19:46.021Z,14.63
2019-04-27T06:22:12.762Z,13.30
2019-04-27T06:24:39.775Z,16.57
2019-04-27T06:27:06.208Z,12.90
2019-04-27T06:29:32.533Z,12.30
2019-04-27T06:31:59.444Z,14.93
2019-04-27T06:34:25.859Z,15.90
2019-04-27T06:36:52.229Z,14.03
2019-04-27T06:39:20.400Z,15.17
2019-04-27T06:41:46.842Z,14.63
2019-04-27T06:44:13.458Z,15.30
2019-04-27T06:46:40.517Z,14.07
2019-04-27T06:49:09.025Z,17.00
2019-04-27T06:51:36.040Z,17.33
2019-04-27T06:54:02.438Z,15.00
2019-04-27T06:56:28.883Z,16.50
2019-04-27T06:58:56.566Z,15.07
2019-04-27T07:01:22.889Z,15.73
2019-04-27T07:03:50.672Z,13.67
2019-04-27T07:06:18.715Z,15.40
2019-04-27T07:08:45.492Z,17.70
2019-04-27T07:11:11.828Z,15.03
2019-04-27T07:13:39.021Z,16.47
2019-04-27T07:16:05.481Z,14.90
2019-04-27T07:18:31.917Z,12.50
2019-04-27T07:20:58.783Z,16.73
2019-04-27T07:23:25.637Z,15.83
2019-04-27T07:25:52.374Z,16.30
2019-04-27T07:28:19.088Z,16.63
2019-04-27T07:30:45.604Z,17.40
2019-04-27T07:33:12.268Z,14.50
2019-04-27T07:35:39.367Z,13.20
2019-04-27T07:38:06.172Z,15.07
2019-04-27T07:40:32.787Z,14.50
2019-04-27T07:43:01.067Z,13.93
2019-04-27T07:45:29.556Z,19.00
2019-04-27T07:47:56.041Z,14.00
2019-04-27T07:50:22.376Z,14.77
2019-04-27T07:52:49.054Z,16.20
2019-04-27T07:55:15.374Z,18.33
2019-04-27T07:57:41.729Z,19.50
2019-04-27T08:00:09.467Z,16.10
2019-04-27T08:02:36.263Z,17.20
2019-04-27T08:05:04.585Z,17.80
2019-04-27T08:07:31.278Z,19.27
2019-04-27T08:10:01.113Z,16.13
2019-04-27T08:12:28.859Z,20.63
2019-04-27T08:14:55.416Z,16.37
2019-04-27T08:17:21.749Z,18.80
2019-04-27T08:19:49.652Z,20.13
2019-04-27T08:22:16.173Z,22.60
2019-04-27T08:24:42.835Z,20.73
2019-04-27T08:27:29.423Z,20.63
2019-04-27T08:30:04.912Z,27.20
2019-04-27T08:32:33.983Z,19.93
2019-04-27T08:35:00.775Z,24.50
2019-04-27T08:37:28.652Z,28.10
2019-04-27T08:39:55.550Z,23.33
2019-04-27T08:42:23.049Z,23.40
2019-04-27T08:44:49.835Z,25.47
2019-04-27T08:47:16.283Z,27.10
2019-04-27T08:49:42.624Z,29.77
2019-04-27T08:52:09.527Z,23.27
2019-04-27T08:54:35.957Z,26.60
2019-04-27T08:57:02.878Z,19.40
2019-04-27T08:59:29.712Z,22.23
2019-04-27T09:01:56.395Z,27.97
2019-04-27T09:04:23.057Z,27.67
2019-04-27T09:06:51.344Z,21.23
2019-04-27T09:09:31.856Z,20.90
2019-04-27T09:12:12.428Z,19.23
2019-04-27T09:14:40.864Z,20.60
2019-04-27T09:17:09.591Z,22.30
2019-04-27T09:19:39.404Z,20.30
2019-04-27T09:22:16.121Z,25.23
2019-04-27T09:24:36.751Z,20.90
2019-04-27T09:27:04.987Z,19.33
2019-04-27T09:29:31.958Z,20.57
2019-04-27T09:32:08.884Z,20.53
2019-04-27T09:34:37.543Z,18.90
2019-04-27T09:37:03.899Z,19.33
2019-04-27T09:39:30.235Z,18.53
2019-04-27T09:41:57.263Z,18.53
2019-04-27T09:44:23.744Z,22.20
2019-04-27T09:46:50.162Z,19.63
2019-04-27T09:49:16.617Z,17.50
2019-04-27T09:51:43.248Z,18.80
2019-04-27T09:54:09.651Z,20.93
2019-04-27T09:56:36.439Z,20.73
2019-04-27T09:59:03.287Z,19.43
2019-04-27T10:01:29.793Z,18.17
2019-04-27T10:03:56.613Z,17.63
2019-04-27T10:06:29.399Z,17.33
2019-04-27T10:08:53.553Z,17.50
2019-04-27T10:11:20.243Z,17.67
2019-04-27T10:13:46.683Z,16.53
2019-04-27T10:16:13.315Z,15.97
2019-04-27T10:18:41.905Z,16.57
2019-04-27T10:21:08.664Z,15.07
2019-04-27T10:23:36.224Z,12.97
2019-04-27T10:26:05.756Z,14.33
2019-04-27T10:28:32.242Z,14.67
2019-04-27T10:30:59.219Z,17.97
2019-04-27T10:33:27.290Z,13.03
2019-04-27T10:35:53.698Z,11.33
2019-04-27T10:38:20.239Z,11.80
2019-04-27T10:40:46.916Z,16.33
2019-04-27T10:43:17.075Z,12.73
2019-04-27T10:45:46.258Z,12.33
2019-04-27T10:48:12.704Z,16.83
2019-04-27T10:50:39.362Z,13.03
2019-04-27T10:53:06.948Z,15.63
2019-04-27T10:55:33.786Z,10.97
2019-04-27T10:58:00.142Z,13.70
2019-04-27T11:00:46.471Z,15.50
2019-04-27T11:03:16.604Z,21.73
2019-04-27T11:05:58.857Z,19.30
2019-04-27T11:08:25.129Z,20.30
2019-04-27T11:10:51.469Z,18.87
2019-04-27T11:13:18.143Z,24.10
2019-04-27T11:15:46.127Z,19.43
2019-04-27T11:18:12.582Z,23.77
2019-04-27T11:20:38.961Z,17.03
2019-04-27T11:23:09.311Z,17.67
2019-04-27T11:25:33.535Z,15.80
2019-04-27T11:27:59.863Z,14.13
2019-04-27T11:30:26.658Z,15.60
2019-04-27T11:32:56.655Z,13.83
2019-04-27T11:35:21.514Z,10.47
2019-04-27T11:37:50.467Z,9.87
2019-04-27T11:40:19.790Z,9.03
2019-04-27T11:42:46.122Z,9.53
2019-04-27T11:45:13.370Z,9.87
2019-04-27T11:47:39.716Z,10.40
2019-04-27T11:50:08.184Z,12.07
2019-04-27T11:52:35.093Z,9.50
2019-04-27T11:55:01.545Z,8.00
2019-04-27T11:57:28.576Z,8.47
2019-04-27T11:59:56.307Z,6.10
2019-04-27T12:02:25.747Z,5.97
2019-04-27T12:04:52.292Z,5.70
2019-04-27T12:07:18.928Z,8.30
2019-04-27T12:09:46.212Z,9.53
2019-04-27T12:12:18.162Z,7.47
2019-04-27T12:14:42.041Z,6.43
2019-04-27T12:17:08.777Z,6.57
2019-04-27T12:19:35.611Z,4.73
2019-04-27T12:22:02.440Z,5.10
2019-04-27T12:24:28.765Z,5.40
2019-04-27T12:26:57.443Z,5.70
2019-04-27T12:29:25.736Z,7.13
2019-04-27T12:31:52.043Z,5.10
2019-04-27T12:34:18.695Z,6.73
2019-04-27T12:36:45.931Z,5.90
2019-04-27T12:39:12.808Z,6.40
2019-04-27T12:41:39.540Z,6.30
2019-04-27T12:44:07.600Z,6.47
2019-04-27T12:46:34.357Z,6.03
2019-04-27T12:49:01.111Z,5.40
2019-04-27T12:51:28.418Z,9.20
2019-04-27T12:54:06.019Z,5.30
2019-04-27T12:56:46.938Z,6.30
2019-04-27T12:59:15.224Z,4.20
2019-04-27T13:01:43.804Z,3.90
2019-04-27T13:04:10.632Z,5.00
2019-04-27T13:06:38.207Z,3.03
2019-04-27T13:09:07.124Z,3.40
2019-04-27T13:11:34.319Z,3.13
2019-04-27T13:14:00.690Z,3.43
2019-04-27T13:16:30.308Z,4.13
2019-04-27T13:18:57.336Z,3.47
2019-04-27T13:21:26.145Z,3.50
2019-04-27T13:24:02.106Z,4.47
2019-04-27T13:26:20.686Z,2.70
2019-04-27T13:28:47.147Z,3.87
2019-04-27T13:31:13.563Z,4.43
2019-04-27T13:33:39.969Z,4.50
2019-04-27T13:36:07.623Z,5.23
2019-04-27T13:38:36.500Z,7.63
2019-04-27T13:41:09.673Z,4.60
2019-04-27T13:43:37.646Z,4.57
2019-04-27T13:46:26.110Z,5.20
2019-04-27T13:49:11.149Z,4.90
2019-04-27T13:51:37.705Z,6.50
2019-04-27T13:54:14.978Z,4.77
2019-04-27T13:56:32.627Z,4.93
2019-04-27T13:58:58.932Z,7.40
2019-04-27T14:01:25.368Z,5.67
2019-04-27T14:03:51.798Z,6.53
2019-04-27T14:06:18.253Z,8.10
2019-04-27T14:08:44.568Z,3.10
2019-04-27T14:11:11.332Z,3.83
2019-04-27T14:13:39.139Z,4.57
2019-04-27T14:16:05.752Z,6.40
2019-04-27T14:18:32.472Z,4.30
2019-04-27T14:20:59.308Z,4.00
2019-04-27T14:23:48.393Z,4.33
2019-04-27T14:26:18.472Z,3.60
2019-04-27T14:28:48.111Z,6.47
2019-04-27T14:31:15.249Z,5.80
2019-04-27T14:33:41.595Z,4.70
2019-04-27T14:36:08.979Z,4.27
2019-04-27T14:38:36.017Z,6.43
2019-04-27T14:41:02.543Z,5.40
2019-04-27T14:43:29.182Z,3.20
2019-04-27T14:45:55.544Z,3.10
2019-04-27T14:48:23.240Z,3.70
2019-04-27T14:50:49.967Z,9.63
2019-04-27T14:53:16.286Z,7.27
2019-04-27T14:55:42.938Z,5.50
2019-04-27T14:58:09.501Z,5.23
2019-04-27T15:00:36.220Z,7.93
2019-04-27T15:03:02.902Z,13.80
2019-04-27T15:05:29.226Z,6.43
2019-04-27T15:07:55.922Z,7.77
2019-04-27T15:10:22.258Z,7.50
2019-04-27T15:12:48.592Z,8.33
2019-04-27T15:15:15.557Z,7.77
2019-04-27T15:17:42.389Z,8.70
2019-04-27T15:20:11.281Z,7.20
2019-04-27T15:22:40.219Z,6.23
2019-04-27T15:25:11.802Z,7.10
2019-04-27T15:27:38.670Z,5.63
2019-04-27T15:30:11.401Z,6.00
2019-04-27T15:32:44.923Z,8.57
2019-04-27T15:35:21.276Z,9.33
2019-04-27T15:38:04.950Z,9.27
2019-04-27T15:40:40.078Z,8.03
2019-04-27T15:43:09.254Z,10.33
2019-04-27T15:45:38.634Z,9.20
2019-04-27T15:48:05.628Z,7.67
2019-04-27T15:50:32.438Z,7.07
2019-04-27T15:53:03.007Z,14.10
2019-04-27T15:55:34.661Z,12.50
2019-04-27T15:57:56.391Z,9.47
2019-04-27T16:00:25.361Z,8.33
2019-04-27T16:02:52.732Z,8.43
2019-04-27T16:05:19.305Z,7.43
2019-04-27T16:07:45.749Z,7.87
2019-04-27T16:10:12.269Z,7.53
2019-04-27T16:12:47.497Z,7.40
2019-04-27T16:15:08.105Z,7.70
2019-04-27T16:17:34.926Z,6.77
2019-04-27T16:20:01.679Z,6.17
2019-04-27T16:22:28.117Z,7.77
2019-04-27T16:24:54.733Z,6.93
2019-04-27T16:27:21.277Z,6.23
2019-04-27T16:29:49.202Z,5.57
2019-04-27T16:32:15.767Z,6.20
2019-04-27T16:34:43.484Z,6.23
2019-04-27T16:37:13.963Z,5.33
2019-04-27T16:39:45.531Z,4.40
2019-04-27T16:42:14.075Z,5.07
2019-04-27T16:44:40.019Z,5.37
2019-04-27T16:47:05.655Z,4.07
2019-04-27T16:49:32.779Z,4.90
2019-04-27T16:51:59.204Z,5.40
2019-04-27T16:54:25.826Z,8.80
2019-04-27T16:57:02.011Z,7.27
2019-04-27T16:59:39.603Z,4.00
2019-04-27T17:01:50.320Z,4.70
2019-04-27T17:04:17.344Z,7.70
2019-04-27T17:06:45.971Z,6.93
2019-04-27T17:09:12.501Z,6.00
2019-04-27T17:11:43.927Z,7.40
2019-04-27T17:14:14.156Z,5.47
2019-04-27T17:16:42.440Z,6.93
2019-04-27T17:19:15.844Z,5.53
2019-04-27T17:21:42.559Z,4.10
2019-04-27T17:24:09.229Z,4.50
2019-04-27T17:26:42.375Z,6.57
2019-04-27T17:29:15.966Z,5.63
2019-04-27T17:31:40.248Z,15.50
2019-04-27T17:34:08.144Z,8.23
2019-04-27T17:36:36.527Z,6.30
2019-04-27T17:39:08.471Z,4.37
2019-04-27T17:41:45.009Z,3.63
2019-04-27T17:44:12.717Z,3.97
2019-04-27T17:46:42.576Z,2.60
2019-04-27T17:49:08.464Z,7.77
2019-04-27T17:51:42.872Z,2.20
2019-04-27T17:54:08.010Z,6.40
2019-04-27T17:56:36.213Z,6.17
2019-04-27T17:59:01.678Z,2.53
2019-04-27T18:01:30.134Z,3.40
2019-04-27T18:04:00.033Z,5.50
2019-04-27T18:06:27.818Z,5.13
2019-04-27T18:08:54.856Z,1.73
2019-04-27T18:11:21.867Z,2.03
2019-04-27T18:13:49.165Z,2.10
2019-04-27T18:16:15.923Z,1.30
2019-04-27T18:18:48.684Z,1.50
2019-04-27T18:21:15.751Z,2.03
2019-04-27T18:23:51.913Z,1.10
2019-04-27T18:26:21.264Z,4.10
2019-04-27T18:28:52.164Z,1.97
2019-04-27T18:31:17.978Z,2.50
2019-04-27T18:33:46.698Z,4.03
2019-04-27T18:36:14.354Z,4.47
2019-04-27T18:38:42.583Z,4.30
2019-04-27T18:41:11.599Z,6.03
2019-04-27T18:43:45.877Z,5.80
2019-04-27T18:46:09.024Z,6.10
2019-04-27T18:48:44.752Z,2.43
2019-04-27T18:51:25.134Z,2.63
2019-04-27T18:53:50.086Z,2.60
2019-04-27T18:56:16.595Z,3.83
2019-04-27T18:58:45.138Z,3.73
2019-04-27T19:01:11.550Z,2.30
2019-04-27T19:03:39.152Z,3.53
2019-04-27T19:06:08.434Z,2.30
2019-04-27T19:08:34.727Z,2.50
2019-04-27T19:11:04.630Z,2.43
2019-04-27T19:13:30.042Z,2.13
2019-04-27T19:15:59.907Z,2.73
2019-04-27T19:18:26.930Z,2.80
2019-04-27T19:20:58.347Z,2.73
2019-04-27T19:23:25.201Z,3.73
2019-04-27T19:25:54.589Z,1.97
2019-04-27T19:28:32.163Z,4.20
2019-04-27T19:31:01.725Z,3.10
2019-04-27T19:33:30.383Z,1.87
2019-04-27T19:35:58.463Z,1.70
2019-04-27T19:38:25.281Z,2.40
2019-04-27T19:40:52.388Z,3.20
2019-04-27T19:43:18.841Z,1.73
2019-04-27T19:45:45.619Z,19.63
2019-04-27T19:48:12.180Z,2.50
2019-04-27T19:50:39.274Z,2.40
2019-04-27T19:53:06.686Z,3.40
2019-04-27T19:55:35.378Z,3.57
2019-04-27T19:58:03.873Z,1.70
2019-04-27T20:00:32.216Z,4.00
2019-04-27T20:03:00.110Z,2.37
2019-04-27T20:05:26.547Z,5.03
2019-04-27T20:07:52.859Z,2.80
2019-04-27T20:10:20.302Z,3.23
2019-04-27T20:12:46.769Z,1.87
2019-04-27T20:15:13.584Z,3.40
2019-04-27T20:18:02.953Z,4.53
2019-04-27T20:20:29.316Z,3.17
2019-04-27T20:22:55.867Z,2.07
2019-04-27T20:25:22.371Z,4.53
2019-04-27T20:27:52.060Z,2.20
2019-04-27T20:30:18.552Z,2.30
2019-04-27T20:32:44.997Z,2.87
2019-04-27T20:35:12.540Z,2.90
2019-04-27T20:37:39.184Z,4.07
2019-04-27T20:40:06.948Z,3.07
2019-04-27T20:42:33.394Z,6.00
2019-04-27T20:45:01.719Z,3.60
2019-04-27T20:47:30.105Z,4.43
2019-04-27T20:49:56.955Z,6.73
2019-04-27T20:52:25.651Z,5.27
2019-04-27T20:54:52.095Z,8.37
2019-04-27T20:57:18.787Z,7.50
2019-04-27T20:59:45.127Z,5.70
2019-04-27T21:02:33.916Z,4.50
2019-04-27T21:05:02.383Z,5.83
2019-04-27T21:07:45.848Z,7.17
2019-04-27T21:10:15.296Z,6.90
2019-04-27T21:12:43.874Z,3.43
2019-04-27T21:15:12.945Z,3.70
2019-04-27T21:17:40.651Z,3.03
2019-04-27T21:20:08.708Z,6.63
2019-04-27T21:22:35.224Z,5.00
2019-04-27T21:25:01.690Z,2.33
2019-04-27T21:27:28.576Z,2.13
2019-04-27T21:29:55.015Z,2.60
2019-04-27T21:32:21.710Z,3.63
2019-04-27T21:34:51.465Z,1.70
2019-04-27T21:37:18.234Z,1.40
2019-04-27T21:39:44.624Z,3.53
2019-04-27T21:42:11.163Z,2.30
2019-04-27T21:44:38.990Z,2.37
2019-04-27T21:47:05.308Z,1.40
2019-04-27T21:49:31.740Z,1.30
2019-04-27T21:52:03.230Z,1.10
2019-04-27T21:54:32.770Z,2.90
2019-04-27T21:57:00.257Z,1.33
2019-04-27T21:59:26.712Z,2.20
2019-04-27T22:01:56.241Z,1.70
2019-04-27T22:04:22.770Z,2.27
2019-04-27T22:06:51.098Z,3.03
2019-04-27T22:09:18.086Z,1.57
2019-04-27T22:11:45.050Z,3.83
2019-04-27T22:14:11.821Z,1.13
2019-04-27T22:16:38.564Z,0.80
2019-04-27T22:19:05.223Z,0.70
2019-04-27T22:21:31.777Z,1.57
2019-04-27T22:24:06.144Z,0.60
2019-04-27T22:26:32.674Z,1.73
2019-04-27T22:28:59.065Z,0.80
2019-04-27T22:31:25.997Z,0.53
2019-04-27T22:33:54.583Z,0.60
2019-04-27T22:36:21.295Z,0.60
2019-04-27T22:38:47.880Z,0.63
2019-04-27T22:41:16.862Z,0.70
2019-04-27T22:43:45.193Z,0.70
2019-04-27T22:46:22.787Z,0.57
2019-04-27T22:48:51.591Z,3.03
2019-04-27T22:51:18.414Z,1.10
2019-04-27T22:53:45.111Z,0.60
2019-04-27T22:56:13.734Z,2.40
2019-04-27T22:59:00.445Z,0.60
2019-04-27T23:01:36.467Z,0.97
2019-04-27T23:04:11.778Z,0.70
2019-04-27T23:06:38.374Z,1.20
2019-04-27T23:09:04.698Z,2.73
2019-04-27T23:11:33.469Z,1.00
2019-04-27T23:14:01.076Z,1.37
2019-04-27T23:16:30.841Z,0.83
2019-04-27T23:18:57.348Z,3.03
2019-04-27T23:21:24.123Z,0.90
2019-04-27T23:23:51.710Z,1.00
2019-04-27T23:26:18.194Z,0.83
2019-04-27T23:28:44.944Z,0.70
2019-04-27T23:31:23.639Z,2.00
2019-04-27T23:33:51.892Z,1.10
2019-04-27T23:36:18.287Z,1.47
2019-04-27T23:38:44.924Z,0.80
2019-04-27T23:41:11.693Z,0.90
2019-04-27T23:43:38.034Z,1.13
2019-04-27T23:46:04.833Z,2.03
2019-04-27T23:48:32.094Z,1.00
2019-04-27T23:51:00.524Z,1.27
2019-04-27T23:53:28.848Z,0.80
2019-04-27T23:55:55.254Z,1.10
2019-04-27T23:58:22.030Z,1.30
